KIKK/IKK METAR and TAF weather

Enter ICAO airport designator
Station Type Date Time Source
KIKK METAR 2022/08/13 13:01 UTC NOAA

KIKK 131301Z AUTO 16004KT 10SM CLR 18/14 A3016 RMK AO2


Station Type Date Time Source
KIKK Decoded METAR 2022/08/13 13:01 UTC NOAA

Kankakee, Greater Kankakee Airport, IL, United States (KIKK) 41-04-17N 087-50-47W
Aug 13, 2022 - 09:01 AM EDT / 2022.08.13 1301 UTC
Wind: from the SSE (160 degrees) at 5 MPH (4 KT):0
Visibility: 10 mile(s):0
Sky conditions: clear
Temperature: 64 F (18 C)
Dew Point: 57 F (14 C)
Relative Humidity: 77%
Pressure (altimeter): 30.16 in. Hg (1021 hPa)
ob: KIKK 131301Z AUTO 16004KT 10SM CLR 18/14 A3016 RMK AO2
cycle: 13

Station Type Date Time Source
KIKK TAF UTC NOAA

Error!

Example: see airport list